sensor_id;sensor_type;location;lat;lon;timestamp;pressure;altitude;pressure_sealevel;temperature;humidity
48862;BME280;34681;49.188;-0.374;2023-12-14T00:01:41;101303.06;;;10.67;62.83
48862;BME280;34681;49.188;-0.374;2023-12-14T00:04:08;101302.28;;;10.76;62.70
48862;BME280;34681;49.188;-0.374;2023-12-14T00:06:33;101306.47;;;11.01;61.96
48862;BME280;34681;49.188;-0.374;2023-12-14T00:08:58;101311.25;;;11.09;61.92
48862;BME280;34681;49.188;-0.374;2023-12-14T00:11:24;101322.97;;;11.11;61.99
48862;BME280;34681;49.188;-0.374;2023-12-14T00:13:49;101322.47;;;11.06;62.49
48862;BME280;34681;49.188;-0.374;2023-12-14T00:16:15;101342.00;;;10.91;63.05
48862;BME280;34681;49.188;-0.374;2023-12-14T00:18:40;101334.94;;;10.89;63.04
48862;BME280;34681;49.188;-0.374;2023-12-14T00:21:05;101352.44;;;10.77;63.42
48862;BME280;34681;49.188;-0.374;2023-12-14T00:23:31;101346.19;;;10.75;63.61
48862;BME280;34681;49.188;-0.374;2023-12-14T00:25:56;101347.03;;;10.86;63.26
48862;BME280;34681;49.188;-0.374;2023-12-14T00:28:22;101355.63;;;10.82;62.91
48862;BME280;34681;49.188;-0.374;2023-12-14T00:30:47;101352.56;;;10.96;62.70
48862;BME280;34681;49.188;-0.374;2023-12-14T00:33:13;101359.09;;;11.05;62.35
48862;BME280;34681;49.188;-0.374;2023-12-14T00:35:38;101362.03;;;10.92;61.80
48862;BME280;34681;49.188;-0.374;2023-12-14T00:38:04;101347.06;;;10.75;62.30
48862;BME280;34681;49.188;-0.374;2023-12-14T00:40:29;101355.06;;;10.67;62.10
48862;BME280;34681;49.188;-0.374;2023-12-14T00:42:54;101352.88;;;10.61;62.33
48862;BME280;34681;49.188;-0.374;2023-12-14T00:45:19;101364.84;;;10.60;62.50
48862;BME280;34681;49.188;-0.374;2023-12-14T00:47:45;101372.50;;;10.66;62.06
48862;BME280;34681;49.188;-0.374;2023-12-14T00:50:10;101379.34;;;10.92;61.78
48862;BME280;34681;49.188;-0.374;2023-12-14T00:52:35;101387.41;;;10.94;61.69
48862;BME280;34681;49.188;-0.374;2023-12-14T00:55:01;101388.75;;;11.20;61.07
48862;BME280;34681;49.188;-0.374;2023-12-14T00:57:26;101392.81;;;11.26;61.34
48862;BME280;34681;49.188;-0.374;2023-12-14T00:59:52;101382.34;;;11.41;60.82
48862;BME280;34681;49.188;-0.374;2023-12-14T01:02:17;101386.22;;;11.38;60.30
48862;BME280;34681;49.188;-0.374;2023-12-14T01:04:42;101394.06;;;11.22;60.29
48862;BME280;34681;49.188;-0.374;2023-12-14T01:07:08;101395.47;;;11.16;61.13
48862;BME280;34681;49.188;-0.374;2023-12-14T01:09:33;101404.09;;;10.91;60.82
48862;BME280;34681;49.188;-0.374;2023-12-14T01:11:58;101403.31;;;10.79;61.14
48862;BME280;34681;49.188;-0.374;2023-12-14T01:14:24;101406.44;;;10.95;60.95
48862;BME280;34681;49.188;-0.374;2023-12-14T01:16:49;101413.88;;;11.05;60.65
48862;BME280;34681;49.188;-0.374;2023-12-14T01:19:14;101416.81;;;11.13;60.78
48862;BME280;34681;49.188;-0.374;2023-12-14T01:21:40;101411.66;;;11.19;60.73
48862;BME280;34681;49.188;-0.374;2023-12-14T01:24:05;101420.25;;;11.15;60.86
48862;BME280;34681;49.188;-0.374;2023-12-14T01:26:30;101424.22;;;11.22;61.10
48862;BME280;34681;49.188;-0.374;2023-12-14T01:28:56;101425.34;;;11.19;60.63
48862;BME280;34681;49.188;-0.374;2023-12-14T01:31:21;101432.97;;;10.95;61.61
48862;BME280;34681;49.188;-0.374;2023-12-14T01:33:50;101436.88;;;10.81;61.48
48862;BME280;34681;49.188;-0.374;2023-12-14T01:36:22;101445.88;;;10.72;62.04
48862;BME280;34681;49.188;-0.374;2023-12-14T01:38:49;101454.31;;;10.80;61.95
48862;BME280;34681;49.188;-0.374;2023-12-14T01:41:14;101467.03;;;11.02;61.03
48862;BME280;34681;49.188;-0.374;2023-12-14T01:43:39;101473.75;;;10.98;60.64
48862;BME280;34681;49.188;-0.374;2023-12-14T01:46:05;101476.03;;;10.93;60.49
48862;BME280;34681;49.188;-0.374;2023-12-14T01:48:30;101477.88;;;10.72;61.37
48862;BME280;34681;49.188;-0.374;2023-12-14T01:50:55;101484.78;;;10.87;61.23
48862;BME280;34681;49.188;-0.374;2023-12-14T01:53:21;101481.97;;;10.98;61.17
48862;BME280;34681;49.188;-0.374;2023-12-14T01:55:47;101492.03;;;11.30;60.45
48862;BME280;34681;49.188;-0.374;2023-12-14T01:58:12;101496.16;;;11.24;60.38
48862;BME280;34681;49.188;-0.374;2023-12-14T02:00:39;101494.75;;;11.09;60.26
48862;BME280;34681;49.188;-0.374;2023-12-14T02:03:06;101497.41;;;10.99;60.45
48862;BME280;34681;49.188;-0.374;2023-12-14T02:05:31;101494.44;;;10.91;60.96
48862;BME280;34681;49.188;-0.374;2023-12-14T02:07:57;101496.38;;;11.11;60.66
48862;BME280;34681;49.188;-0.374;2023-12-14T02:10:22;101511.03;;;11.42;59.65
48862;BME280;34681;49.188;-0.374;2023-12-14T02:12:48;101511.78;;;11.33;59.83
48862;BME280;34681;49.188;-0.374;2023-12-14T02:15:13;101519.91;;;11.35;59.55
48862;BME280;34681;49.188;-0.374;2023-12-14T02:17:39;101529.16;;;11.22;59.46
48862;BME280;34681;49.188;-0.374;2023-12-14T02:20:05;101536.09;;;11.06;60.40
48862;BME280;34681;49.188;-0.374;2023-12-14T02:22:53;101537.19;;;11.14;60.60
48862;BME280;34681;49.188;-0.374;2023-12-14T02:25:19;101538.19;;;11.13;60.75
48862;BME280;34681;49.188;-0.374;2023-12-14T02:27:45;101541.78;;;11.14;60.93
48862;BME280;34681;49.188;-0.374;2023-12-14T02:30:11;101550.91;;;11.35;60.35
48862;BME280;34681;49.188;-0.374;2023-12-14T02:32:38;101552.56;;;11.27;60.44
48862;BME280;34681;49.188;-0.374;2023-12-14T02:35:04;101557.94;;;11.17;60.51
48862;BME280;34681;49.188;-0.374;2023-12-14T02:37:30;101551.28;;;11.10;61.02
48862;BME280;34681;49.188;-0.374;2023-12-14T02:39:55;101559.72;;;10.75;61.30
48862;BME280;34681;49.188;-0.374;2023-12-14T02:42:21;101558.47;;;10.79;61.52
48862;BME280;34681;49.188;-0.374;2023-12-14T02:44:46;101560.06;;;10.92;61.24
48862;BME280;34681;49.188;-0.374;2023-12-14T02:47:12;101550.56;;;10.96;61.25
48862;BME280;34681;49.188;-0.374;2023-12-14T02:49:37;101557.94;;;11.17;60.37
48862;BME280;34681;49.188;-0.374;2023-12-14T02:52:03;101551.50;;;11.18;60.20
48862;BME280;34681;49.188;-0.374;2023-12-14T02:54:28;101567.44;;;11.13;60.44
48862;BME280;34681;49.188;-0.374;2023-12-14T02:56:53;101569.91;;;11.16;60.41
48862;BME280;34681;49.188;-0.374;2023-12-14T02:59:19;101573.00;;;11.22;60.24
48862;BME280;34681;49.188;-0.374;2023-12-14T03:01:44;101579.41;;;11.12;60.51
48862;BME280;34681;49.188;-0.374;2023-12-14T03:04:09;101591.81;;;11.16;60.81
48862;BME280;34681;49.188;-0.374;2023-12-14T03:06:35;101598.16;;;11.28;59.75
48862;BME280;34681;49.188;-0.374;2023-12-14T03:09:00;101607.38;;;11.27;60.01
48862;BME280;34681;49.188;-0.374;2023-12-14T03:11:25;101603.72;;;11.37;59.14
48862;BME280;34681;49.188;-0.374;2023-12-14T03:13:51;101610.31;;;11.03;60.16
48862;BME280;34681;49.188;-0.374;2023-12-14T03:16:17;101608.16;;;11.17;59.77
48862;BME280;34681;49.188;-0.374;2023-12-14T03:18:42;101612.66;;;11.07;59.87
48862;BME280;34681;49.188;-0.374;2023-12-14T03:21:09;101616.09;;;11.20;59.62
48862;BME280;34681;49.188;-0.374;2023-12-14T03:23:34;101628.22;;;11.39;59.31
48862;BME280;34681;49.188;-0.374;2023-12-14T03:26:00;101624.09;;;11.44;58.92
48862;BME280;34681;49.188;-0.374;2023-12-14T03:28:26;101638.47;;;11.37;58.65
48862;BME280;34681;49.188;-0.374;2023-12-14T03:30:51;101636.28;;;11.08;60.04
48862;BME280;34681;49.188;-0.374;2023-12-14T03:33:17;101636.06;;;11.11;60.03
48862;BME280;34681;49.188;-0.374;2023-12-14T03:35:42;101638.44;;;11.05;60.22
48862;BME280;34681;49.188;-0.374;2023-12-14T03:38:09;101642.13;;;11.26;60.32
48862;BME280;34681;49.188;-0.374;2023-12-14T03:40:34;101638.53;;;11.14;59.91
48862;BME280;34681;49.188;-0.374;2023-12-14T03:43:00;101652.84;;;11.18;60.11
48862;BME280;34681;49.188;-0.374;2023-12-14T03:45:26;101656.56;;;11.28;60.15
48862;BME280;34681;49.188;-0.374;2023-12-14T03:47:51;101654.81;;;11.27;59.97
48862;BME280;34681;49.188;-0.374;2023-12-14T03:50:16;101660.97;;;11.40;59.55
48862;BME280;34681;49.188;-0.374;2023-12-14T03:52:42;101656.13;;;11.44;59.30
48862;BME280;34681;49.188;-0.374;2023-12-14T03:55:07;101662.84;;;11.40;59.12
48862;BME280;34681;49.188;-0.374;2023-12-14T03:57:33;101661.06;;;11.07;59.90
48862;BME280;34681;49.188;-0.374;2023-12-14T03:59:58;101667.94;;;10.90;60.53
48862;BME280;34681;49.188;-0.374;2023-12-14T04:02:24;101655.69;;;11.16;60.17
48862;BME280;34681;49.188;-0.374;2023-12-14T04:04:49;101657.16;;;11.32;59.93
48862;BME280;34681;49.188;-0.374;2023-12-14T04:07:14;101666.22;;;11.43;59.36
48862;BME280;34681;49.188;-0.374;2023-12-14T04:09:40;101666.06;;;11.77;58.33
48862;BME280;34681;49.188;-0.374;2023-12-14T04:12:05;101675.91;;;11.47;59.26
48862;BME280;34681;49.188;-0.374;2023-12-14T04:14:31;101683.38;;;11.45;59.48
48862;BME280;34681;49.188;-0.374;2023-12-14T04:16:56;101690.13;;;11.41;59.84
48862;BME280;34681;49.188;-0.374;2023-12-14T04:19:21;101695.06;;;11.59;59.59
48862;BME280;34681;49.188;-0.374;2023-12-14T04:21:47;101692.34;;;11.47;59.52
48862;BME280;34681;49.188;-0.374;2023-12-14T04:24:13;101694.50;;;11.44;58.87
48862;BME280;34681;49.188;-0.374;2023-12-14T04:26:38;101693.66;;;11.21;60.06
48862;BME280;34681;49.188;-0.374;2023-12-14T04:29:05;101705.44;;;11.44;59.81
48862;BME280;34681;49.188;-0.374;2023-12-14T04:31:31;101695.34;;;11.44;59.95
48862;BME280;34681;49.188;-0.374;2023-12-14T04:33:57;101700.31;;;11.50;59.77
48862;BME280;34681;49.188;-0.374;2023-12-14T04:36:22;101706.78;;;11.49;59.73
48862;BME280;34681;49.188;-0.374;2023-12-14T04:38:47;101706.31;;;11.33;60.19
48862;BME280;34681;49.188;-0.374;2023-12-14T04:41:13;101717.19;;;11.23;60.39
48862;BME280;34681;49.188;-0.374;2023-12-14T04:43:38;101708.47;;;11.30;60.12
48862;BME280;34681;49.188;-0.374;2023-12-14T04:46:04;101717.28;;;11.44;59.77
48862;BME280;34681;49.188;-0.374;2023-12-14T04:48:31;101725.88;;;11.51;59.75
48862;BME280;34681;49.188;-0.374;2023-12-14T04:50:56;101722.84;;;11.54;59.24
48862;BME280;34681;49.188;-0.374;2023-12-14T04:53:21;101727.19;;;11.57;59.20
48862;BME280;34681;49.188;-0.374;2023-12-14T04:55:47;101738.69;;;11.50;59.36
48862;BME280;34681;49.188;-0.374;2023-12-14T04:58:12;101741.53;;;11.60;59.84
48862;BME280;34681;49.188;-0.374;2023-12-14T05:00:37;101746.38;;;11.57;59.79
48862;BME280;34681;49.188;-0.374;2023-12-14T05:03:03;101748.88;;;11.60;59.87
48862;BME280;34681;49.188;-0.374;2023-12-14T05:05:28;101754.66;;;11.45;60.46
48862;BME280;34681;49.188;-0.374;2023-12-14T05:07:53;101757.63;;;11.53;59.88
48862;BME280;34681;49.188;-0.374;2023-12-14T05:10:19;101754.13;;;11.51;60.01
48862;BME280;34681;49.188;-0.374;2023-12-14T05:12:44;101764.09;;;11.41;59.90
48862;BME280;34681;49.188;-0.374;2023-12-14T05:15:10;101758.50;;;11.54;60.02
48862;BME280;34681;49.188;-0.374;2023-12-14T05:17:36;101768.22;;;11.47;59.96
48862;BME280;34681;49.188;-0.374;2023-12-14T05:20:02;101768.53;;;11.65;59.86
48862;BME280;34681;49.188;-0.374;2023-12-14T05:22:28;101765.94;;;11.63;59.92
48862;BME280;34681;49.188;-0.374;2023-12-14T05:24:54;101763.81;;;11.67;60.08
48862;BME280;34681;49.188;-0.374;2023-12-14T05:27:19;101766.78;;;11.86;59.60
48862;BME280;34681;49.188;-0.374;2023-12-14T05:29:44;101773.41;;;11.84;59.85
48862;BME280;34681;49.188;-0.374;2023-12-14T05:32:09;101768.91;;;11.71;60.11
48862;BME280;34681;49.188;-0.374;2023-12-14T05:34:35;101773.03;;;11.66;60.48
48862;BME280;34681;49.188;-0.374;2023-12-14T05:37:00;101771.78;;;11.70;60.18
48862;BME280;34681;49.188;-0.374;2023-12-14T05:39:25;101774.00;;;11.87;59.83
48862;BME280;34681;49.188;-0.374;2023-12-14T05:41:51;101780.47;;;11.75;59.96
48862;BME280;34681;49.188;-0.374;2023-12-14T05:44:16;101792.50;;;11.51;60.56
48862;BME280;34681;49.188;-0.374;2023-12-14T05:46:42;101790.78;;;11.50;60.66
48862;BME280;34681;49.188;-0.374;2023-12-14T05:49:07;101800.97;;;11.60;60.73
48862;BME280;34681;49.188;-0.374;2023-12-14T05:51:32;101797.81;;;11.64;60.51
48862;BME280;34681;49.188;-0.374;2023-12-14T05:53:58;101804.31;;;11.63;60.30
48862;BME280;34681;49.188;-0.374;2023-12-14T05:56:25;101811.56;;;11.53;60.82
48862;BME280;34681;49.188;-0.374;2023-12-14T05:58:50;101815.78;;;11.68;60.52
48862;BME280;34681;49.188;-0.374;2023-12-14T06:01:19;101803.56;;;11.61;60.18
48862;BME280;34681;49.188;-0.374;2023-12-14T06:03:45;101823.53;;;11.52;60.62
48862;BME280;34681;49.188;-0.374;2023-12-14T06:06:11;101826.00;;;11.55;60.64
48862;BME280;34681;49.188;-0.374;2023-12-14T06:08:38;101836.56;;;11.71;60.42
48862;BME280;34681;49.188;-0.374;2023-12-14T06:11:04;101845.28;;;11.87;60.20
48862;BME280;34681;49.188;-0.374;2023-12-14T06:13:31;101857.50;;;11.72;60.61
48862;BME280;34681;49.188;-0.374;2023-12-14T06:15:56;101848.41;;;11.71;60.41
48862;BME280;34681;49.188;-0.374;2023-12-14T06:18:21;101855.41;;;11.53;61.05
48862;BME280;34681;49.188;-0.374;2023-12-14T06:20:47;101875.34;;;11.33;61.40
48862;BME280;34681;49.188;-0.374;2023-12-14T06:23:12;101891.91;;;11.31;61.59
48862;BME280;34681;49.188;-0.374;2023-12-14T06:25:37;101883.47;;;11.34;61.49
48862;BME280;34681;49.188;-0.374;2023-12-14T06:28:03;101883.09;;;11.28;61.70
48862;BME280;34681;49.188;-0.374;2023-12-14T06:30:28;101889.16;;;11.31;61.11
48862;BME280;34681;49.188;-0.374;2023-12-14T06:32:53;101894.53;;;11.33;61.20
48862;BME280;34681;49.188;-0.374;2023-12-14T06:35:19;101893.78;;;11.31;61.23
48862;BME280;34681;49.188;-0.374;2023-12-14T06:37:44;101890.28;;;11.40;61.20
48862;BME280;34681;49.188;-0.374;2023-12-14T06:40:10;101886.31;;;11.33;61.25
48862;BME280;34681;49.188;-0.374;2023-12-14T06:42:36;101887.03;;;11.12;61.27
48862;BME280;34681;49.188;-0.374;2023-12-14T06:45:04;101899.22;;;11.08;61.07
48862;BME280;34681;49.188;-0.374;2023-12-14T06:47:30;101899.81;;;10.89;61.83
48862;BME280;34681;49.188;-0.374;2023-12-14T06:49:55;101916.31;;;11.12;61.29
48862;BME280;34681;49.188;-0.374;2023-12-14T06:52:22;101909.31;;;10.96;61.22
48862;BME280;34681;49.188;-0.374;2023-12-14T06:54:48;101916.53;;;10.97;61.42
48862;BME280;34681;49.188;-0.374;2023-12-14T06:57:13;101926.47;;;10.87;61.88
48862;BME280;34681;49.188;-0.374;2023-12-14T06:59:38;101928.88;;;11.03;61.30
48862;BME280;34681;49.188;-0.374;2023-12-14T07:02:04;101935.88;;;10.83;61.70
48862;BME280;34681;49.188;-0.374;2023-12-14T07:04:29;101946.97;;;10.82;61.59
48862;BME280;34681;49.188;-0.374;2023-12-14T07:06:54;101950.72;;;10.92;61.51
48862;BME280;34681;49.188;-0.374;2023-12-14T07:09:20;101952.03;;;10.75;61.73
48862;BME280;34681;49.188;-0.374;2023-12-14T07:11:45;101948.06;;;10.68;62.27
48862;BME280;34681;49.188;-0.374;2023-12-14T07:14:12;101932.66;;;10.78;62.21
48862;BME280;34681;49.188;-0.374;2023-12-14T07:16:37;101934.03;;;10.84;61.77
48862;BME280;34681;49.188;-0.374;2023-12-14T07:19:02;101947.50;;;10.87;62.16
48862;BME280;34681;49.188;-0.374;2023-12-14T07:21:28;101958.19;;;10.90;61.98
48862;BME280;34681;49.188;-0.374;2023-12-14T07:23:53;101968.09;;;11.04;61.40
48862;BME280;34681;49.188;-0.374;2023-12-14T07:26:18;101966.00;;;11.18;61.19
48862;BME280;34681;49.188;-0.374;2023-12-14T07:28:44;101975.72;;;11.22;61.33
48862;BME280;34681;49.188;-0.374;2023-12-14T07:31:09;101972.97;;;11.11;61.33
48862;BME280;34681;49.188;-0.374;2023-12-14T07:33:34;101981.56;;;11.18;61.58
48862;BME280;34681;49.188;-0.374;2023-12-14T07:36:00;101977.84;;;11.30;61.33
48862;BME280;34681;49.188;-0.374;2023-12-14T07:38:26;101983.72;;;11.37;60.89
48862;BME280;34681;49.188;-0.374;2023-12-14T07:40:51;101982.47;;;11.41;60.57
48862;BME280;34681;49.188;-0.374;2023-12-14T07:43:17;101980.56;;;11.19;61.20
48862;BME280;34681;49.188;-0.374;2023-12-14T07:45:43;101971.03;;;11.36;60.63
48862;BME280;34681;49.188;-0.374;2023-12-14T07:48:08;101964.81;;;11.34;60.55
48862;BME280;34681;49.188;-0.374;2023-12-14T07:50:34;101963.91;;;11.33;60.49
48862;BME280;34681;49.188;-0.374;2023-12-14T07:52:59;101957.72;;;11.42;60.32
48862;BME280;34681;49.188;-0.374;2023-12-14T07:55:25;101971.38;;;11.31;60.89
48862;BME280;34681;49.188;-0.374;2023-12-14T07:57:50;101982.78;;;11.14;61.05
48862;BME280;34681;49.188;-0.374;2023-12-14T08:00:16;101990.75;;;11.17;61.25
48862;BME280;34681;49.188;-0.374;2023-12-14T08:02:41;101994.50;;;11.16;61.98
48862;BME280;34681;49.188;-0.374;2023-12-14T08:05:07;101995.28;;;11.29;61.39
48862;BME280;34681;49.188;-0.374;2023-12-14T08:07:34;102010.72;;;11.30;61.48
48862;BME280;34681;49.188;-0.374;2023-12-14T08:09:59;102012.41;;;11.44;60.97
48862;BME280;34681;49.188;-0.374;2023-12-14T08:12:25;102008.00;;;11.41;60.99
48862;BME280;34681;49.188;-0.374;2023-12-14T08:14:51;102002.16;;;11.35;61.35
48862;BME280;34681;49.188;-0.374;2023-12-14T08:17:16;101997.69;;;11.34;61.36
48862;BME280;34681;49.188;-0.374;2023-12-14T08:19:42;101994.09;;;11.56;60.64
48862;BME280;34681;49.188;-0.374;2023-12-14T08:22:08;101999.56;;;11.56;60.57
48862;BME280;34681;49.188;-0.374;2023-12-14T08:24:36;102001.03;;;11.48;60.77
48862;BME280;34681;49.188;-0.374;2023-12-14T08:27:02;102005.66;;;11.48;60.88
48862;BME280;34681;49.188;-0.374;2023-12-14T08:29:28;102015.75;;;11.36;61.02
48862;BME280;34681;49.188;-0.374;2023-12-14T08:31:53;102029.97;;;11.52;60.82
48862;BME280;34681;49.188;-0.374;2023-12-14T08:34:22;102036.84;;;11.69;60.11
48862;BME280;34681;49.188;-0.374;2023-12-14T08:36:47;102037.59;;;11.60;60.44
48862;BME280;34681;49.188;-0.374;2023-12-14T08:39:13;102039.72;;;11.68;60.29
48862;BME280;34681;49.188;-0.374;2023-12-14T08:41:38;102043.69;;;11.75;60.27
48862;BME280;34681;49.188;-0.374;2023-12-14T08:44:06;102049.81;;;11.67;60.77
48862;BME280;34681;49.188;-0.374;2023-12-14T08:46:42;102050.47;;;11.82;60.67
48862;BME280;34681;49.188;-0.374;2023-12-14T08:49:07;102051.56;;;11.79;60.83
48862;BME280;34681;49.188;-0.374;2023-12-14T08:51:33;102058.22;;;11.88;60.17
48862;BME280;34681;49.188;-0.374;2023-12-14T08:53:58;102053.13;;;11.95;59.94
48862;BME280;34681;49.188;-0.374;2023-12-14T08:56:23;102063.81;;;11.87;60.28
48862;BME280;34681;49.188;-0.374;2023-12-14T08:58:49;102066.91;;;11.82;60.33
48862;BME280;34681;49.188;-0.374;2023-12-14T09:01:22;102063.59;;;12.01;60.18
48862;BME280;34681;49.188;-0.374;2023-12-14T09:03:47;102067.22;;;12.01;60.12
48862;BME280;34681;49.188;-0.374;2023-12-14T09:06:13;102068.94;;;11.91;60.25
48862;BME280;34681;49.188;-0.374;2023-12-14T09:08:39;102059.72;;;11.92;60.47
48862;BME280;34681;49.188;-0.374;2023-12-14T09:11:05;102059.84;;;12.02;60.24
48862;BME280;34681;49.188;-0.374;2023-12-14T09:13:30;102078.03;;;12.14;60.46
48862;BME280;34681;49.188;-0.374;2023-12-14T09:15:56;102074.94;;;12.19;60.09
48862;BME280;34681;49.188;-0.374;2023-12-14T09:18:21;102087.41;;;12.23;59.78
48862;BME280;34681;49.188;-0.374;2023-12-14T09:20:48;102095.75;;;12.21;59.73
48862;BME280;34681;49.188;-0.374;2023-12-14T09:23:15;102101.25;;;12.10;59.82
48862;BME280;34681;49.188;-0.374;2023-12-14T09:25:41;102108.09;;;12.16;59.90
48862;BME280;34681;49.188;-0.374;2023-12-14T09:28:06;102120.09;;;12.37;59.44
48862;BME280;34681;49.188;-0.374;2023-12-14T09:30:32;102114.97;;;12.32;59.67
48862;BME280;34681;49.188;-0.374;2023-12-14T09:32:57;102123.59;;;12.28;59.62
48862;BME280;34681;49.188;-0.374;2023-12-14T09:35:22;102125.31;;;12.40;59.56
48862;BME280;34681;49.188;-0.374;2023-12-14T09:37:48;102112.59;;;12.39;59.76
48862;BME280;34681;49.188;-0.374;2023-12-14T09:40:15;102113.47;;;12.51;59.67
48862;BME280;34681;49.188;-0.374;2023-12-14T09:42:42;102117.47;;;12.47;59.62
48862;BME280;34681;49.188;-0.374;2023-12-14T09:45:08;102117.94;;;12.41;59.68
48862;BME280;34681;49.188;-0.374;2023-12-14T09:47:36;102130.81;;;12.51;59.66
48862;BME280;34681;49.188;-0.374;2023-12-14T09:50:01;102130.44;;;12.56;59.56
48862;BME280;34681;49.188;-0.374;2023-12-14T09:52:28;102126.34;;;12.50;59.73
48862;BME280;34681;49.188;-0.374;2023-12-14T09:54:53;102134.06;;;12.45;59.64
48862;BME280;34681;49.188;-0.374;2023-12-14T09:57:19;102141.19;;;12.36;59.72
48862;BME280;34681;49.188;-0.374;2023-12-14T09:59:51;102138.31;;;12.38;59.81
48862;BME280;34681;49.188;-0.374;2023-12-14T10:02:17;102141.31;;;12.35;59.58
48862;BME280;34681;49.188;-0.374;2023-12-14T10:04:43;102143.69;;;12.51;59.59
48862;BME280;34681;49.188;-0.374;2023-12-14T10:07:08;102150.53;;;12.68;59.05
48862;BME280;34681;49.188;-0.374;2023-12-14T10:09:36;102153.75;;;12.84;58.75
48862;BME280;34681;49.188;-0.374;2023-12-14T10:12:08;102155.09;;;12.89;58.91
48862;BME280;34681;49.188;-0.374;2023-12-14T10:14:35;102161.34;;;12.80;59.19
48862;BME280;34681;49.188;-0.374;2023-12-14T10:17:19;102162.06;;;13.05;59.00
48862;BME280;34681;49.188;-0.374;2023-12-14T10:19:46;102174.31;;;13.01;59.03
48862;BME280;34681;49.188;-0.374;2023-12-14T10:22:14;102163.28;;;13.12;59.19
48862;BME280;34681;49.188;-0.374;2023-12-14T10:24:42;102175.31;;;13.11;59.11
48862;BME280;34681;49.188;-0.374;2023-12-14T10:27:08;102175.28;;;13.22;59.03
48862;BME280;34681;49.188;-0.374;2023-12-14T10:29:33;102183.41;;;13.24;58.98
48862;BME280;34681;49.188;-0.374;2023-12-14T10:32:03;102180.22;;;13.51;58.40
48862;BME280;34681;49.188;-0.374;2023-12-14T10:34:32;102174.94;;;13.59;57.95
48862;BME280;34681;49.188;-0.374;2023-12-14T10:36:58;102177.34;;;13.73;57.63
48862;BME280;34681;49.188;-0.374;2023-12-14T10:39:23;102188.47;;;13.71;57.57
48862;BME280;34681;49.188;-0.374;2023-12-14T10:41:52;102190.44;;;13.81;57.00
48862;BME280;34681;49.188;-0.374;2023-12-14T10:44:21;102199.63;;;13.70;57.15
48862;BME280;34681;49.188;-0.374;2023-12-14T10:46:48;102194.06;;;13.81;56.88
48862;BME280;34681;49.188;-0.374;2023-12-14T10:49:15;102194.84;;;13.72;56.85
48862;BME280;34681;49.188;-0.374;2023-12-14T10:51:40;102200.63;;;13.69;57.08
48862;BME280;34681;49.188;-0.374;2023-12-14T10:54:08;102197.59;;;13.72;57.21
48862;BME280;34681;49.188;-0.374;2023-12-14T10:56:34;102198.88;;;13.68;56.79
48862;BME280;34681;49.188;-0.374;2023-12-14T10:59:00;102200.03;;;13.65;57.05
48862;BME280;34681;49.188;-0.374;2023-12-14T11:01:26;102197.28;;;13.65;57.02
48862;BME280;34681;49.188;-0.374;2023-12-14T11:03:56;102190.63;;;13.68;56.91
48862;BME280;34681;49.188;-0.374;2023-12-14T11:06:36;102190.09;;;13.74;56.60
48862;BME280;34681;49.188;-0.374;2023-12-14T11:09:07;102186.06;;;13.78;56.73
48862;BME280;34681;49.188;-0.374;2023-12-14T11:11:48;102192.28;;;13.91;56.68
48862;BME280;34681;49.188;-0.374;2023-12-14T11:14:23;102190.84;;;13.97;56.55
48862;BME280;34681;49.188;-0.374;2023-12-14T11:16:49;102187.34;;;13.95;56.37
48862;BME280;34681;49.188;-0.374;2023-12-14T11:24:35;102184.53;;;14.27;55.67
48862;BME280;34681;49.188;-0.374;2023-12-14T11:27:04;102180.38;;;14.32;55.50
48862;BME280;34681;49.188;-0.374;2023-12-14T11:29:29;102179.78;;;14.39;55.55
48862;BME280;34681;49.188;-0.374;2023-12-14T11:31:55;102178.69;;;14.20;55.57
48862;BME280;34681;49.188;-0.374;2023-12-14T11:34:24;102178.34;;;14.34;55.38
48862;BME280;34681;49.188;-0.374;2023-12-14T11:36:49;102174.78;;;14.23;55.14
48862;BME280;34681;49.188;-0.374;2023-12-14T11:39:14;102165.06;;;13.98;55.85
48862;BME280;34681;49.188;-0.374;2023-12-14T11:41:40;102174.03;;;13.90;55.67
48862;BME280;34681;49.188;-0.374;2023-12-14T11:44:05;102177.75;;;13.89;56.02
48862;BME280;34681;49.188;-0.374;2023-12-14T11:46:31;102182.53;;;13.87;56.27
48862;BME280;34681;49.188;-0.374;2023-12-14T11:48:57;102179.41;;;13.81;56.33
48862;BME280;34681;49.188;-0.374;2023-12-14T11:51:23;102175.81;;;13.80;56.42
48862;BME280;34681;49.188;-0.374;2023-12-14T11:53:51;102179.19;;;13.84;56.27
48862;BME280;34681;49.188;-0.374;2023-12-14T11:56:19;102185.13;;;13.89;56.33
48862;BME280;34681;49.188;-0.374;2023-12-14T11:58:45;102186.56;;;13.83;56.42
48862;BME280;34681;49.188;-0.374;2023-12-14T12:01:16;102183.78;;;13.62;56.60
48862;BME280;34681;49.188;-0.374;2023-12-14T12:03:43;102189.47;;;13.49;57.30
48862;BME280;34681;49.188;-0.374;2023-12-14T12:06:19;102185.28;;;13.55;57.25
48862;BME280;34681;49.188;-0.374;2023-12-14T12:08:45;102194.81;;;13.51;57.45
48862;BME280;34681;49.188;-0.374;2023-12-14T12:11:10;102185.88;;;13.70;57.18
48862;BME280;34681;49.188;-0.374;2023-12-14T12:13:35;102191.50;;;13.89;57.09
48862;BME280;34681;49.188;-0.374;2023-12-14T12:16:01;102186.78;;;13.91;57.29
48862;BME280;34681;49.188;-0.374;2023-12-14T12:18:26;102191.59;;;13.99;57.30
48862;BME280;34681;49.188;-0.374;2023-12-14T12:20:52;102189.91;;;13.87;57.74
48862;BME280;34681;49.188;-0.374;2023-12-14T12:23:18;102181.38;;;13.90;57.98
48862;BME280;34681;49.188;-0.374;2023-12-14T12:25:44;102180.19;;;13.83;58.29
48862;BME280;34681;49.188;-0.374;2023-12-14T12:28:09;102179.69;;;13.77;58.41
48862;BME280;34681;49.188;-0.374;2023-12-14T12:30:35;102181.66;;;13.87;58.50
48862;BME280;34681;49.188;-0.374;2023-12-14T12:33:00;102181.19;;;14.02;58.22
48862;BME280;34681;49.188;-0.374;2023-12-14T12:35:26;102175.88;;;14.11;57.98
48862;BME280;34681;49.188;-0.374;2023-12-14T12:37:51;102181.00;;;14.15;58.05
48862;BME280;34681;49.188;-0.374;2023-12-14T12:40:23;102177.75;;;14.10;58.37